Terminal Aerodrome Forecast
Issued by NWS

Home | Current Version | Previous Version | Text Only | Print | Product List | Glossary On
Versions: 1 2 3 4 5 6 7 8 9 10 11 12 13 14 15 16
000
FTUS41 KBTV 250520
TAFPBG
TAF
KPBG 250520Z 2506/2606 VRB03KT P6SM BKN080
     FM251400 13008KT P6SM OVC110
     FM251600 14011G18KT 6SM -RA BR OVC045
     FM252300 07006KT P6SM VCSH OVC028
     FM260500 01006KT 5SM -RA BR OVC020=

USA.gov is the U.S. government's official web portal to all federal, state and local government web resources and services.